createdAt,value
2023-01-31T00:01:10.319Z,0.37
2023-01-31T00:03:38.608Z,0.35
2023-01-31T00:06:23.154Z,0.36
2023-01-31T00:08:50.988Z,0.44
2023-01-31T00:11:19.414Z,0.50
2023-01-31T00:13:46.620Z,0.46
2023-01-31T00:16:15.224Z,0.41
2023-01-31T00:18:42.635Z,0.47
2023-01-31T00:21:15.099Z,0.34
2023-01-31T00:23:43.167Z,0.30
2023-01-31T00:26:15.590Z,0.29
2023-01-31T00:28:43.559Z,0.29
2023-01-31T00:31:11.980Z,0.36
2023-01-31T00:33:40.640Z,0.35
2023-01-31T00:36:09.656Z,0.33
2023-01-31T00:38:36.869Z,0.21
2023-01-31T00:41:04.779Z,0.22
2023-01-31T00:43:32.459Z,0.30
2023-01-31T00:45:59.453Z,0.25
2023-01-31T00:48:26.576Z,0.22
2023-01-31T00:50:53.221Z,0.28
2023-01-31T00:53:23.800Z,0.31
2023-01-31T00:55:51.358Z,0.33
2023-01-31T00:58:18.312Z,0.35
2023-01-31T01:00:45.251Z,0.33
2023-01-31T01:03:11.950Z,0.33
2023-01-31T01:05:38.671Z,0.44
2023-01-31T01:08:05.581Z,0.27
2023-01-31T01:10:33.351Z,0.38
2023-01-31T01:13:00.094Z,0.34
2023-01-31T01:15:26.972Z,0.33
2023-01-31T01:17:54.728Z,0.31
2023-01-31T01:20:21.372Z,0.33
2023-01-31T01:22:47.953Z,0.46
2023-01-31T01:25:14.524Z,0.39
2023-01-31T01:27:41.078Z,0.51
2023-01-31T01:30:08.443Z,0.53
2023-01-31T01:32:35.034Z,0.48
2023-01-31T01:35:01.701Z,0.56
2023-01-31T01:37:28.291Z,0.55
2023-01-31T01:39:54.859Z,0.55
2023-01-31T01:42:24.733Z,0.56
2023-01-31T01:45:00.304Z,0.62
2023-01-31T01:47:30.267Z,0.62
2023-01-31T01:50:07.683Z,0.62
2023-01-31T01:52:38.832Z,0.65
2023-01-31T01:55:18.990Z,0.62
2023-01-31T01:57:49.596Z,0.64
2023-01-31T02:00:25.555Z,0.68
2023-01-31T02:02:56.131Z,0.70
2023-01-31T02:05:29.794Z,0.66
2023-01-31T02:07:57.500Z,0.65
2023-01-31T02:10:36.208Z,0.60
2023-01-31T02:13:03.501Z,0.54
2023-01-31T02:15:30.320Z,0.62
2023-01-31T02:17:57.303Z,0.53
2023-01-31T02:20:38.901Z,0.48
2023-01-31T02:23:33.108Z,0.39
2023-01-31T02:26:27.365Z,0.40
2023-01-31T02:29:31.268Z,0.50
2023-01-31T02:32:29.011Z,0.43
2023-01-31T02:35:13.379Z,0.33
2023-01-31T02:38:07.499Z,0.40
2023-01-31T02:40:53.069Z,0.44
2023-01-31T02:43:23.741Z,0.41
2023-01-31T02:45:50.269Z,0.33
2023-01-31T02:48:53.963Z,0.36
2023-01-31T02:51:25.158Z,0.34
2023-01-31T02:54:01.525Z,0.42
2023-01-31T02:56:33.378Z,0.52
2023-01-31T02:59:07.562Z,0.47
2023-01-31T03:01:40.218Z,0.50
2023-01-31T03:04:09.208Z,0.56
2023-01-31T03:06:36.628Z,0.49
2023-01-31T03:09:22.299Z,0.50
2023-01-31T03:12:00.873Z,0.44
2023-01-31T03:14:31.334Z,0.34
2023-01-31T03:17:54.282Z,0.32
2023-01-31T03:20:44.172Z,0.23
2023-01-31T03:23:22.785Z,0.28
2023-01-31T03:25:50.128Z,0.34
2023-01-31T03:28:23.437Z,0.30
2023-01-31T03:30:57.388Z,0.44
2023-01-31T03:33:29.939Z,0.44
2023-01-31T03:36:15.839Z,0.50
2023-01-31T03:38:54.573Z,0.51
2023-01-31T03:41:42.711Z,0.45
2023-01-31T03:44:26.516Z,0.51
2023-01-31T03:47:00.434Z,0.47
2023-01-31T03:49:29.421Z,0.45
2023-01-31T03:52:04.436Z,0.42
2023-01-31T03:54:37.153Z,0.49
2023-01-31T03:57:16.038Z,0.51
2023-01-31T03:59:45.867Z,0.45
2023-01-31T04:02:16.751Z,0.41
2023-01-31T04:05:08.132Z,0.47
2023-01-31T04:07:36.888Z,0.40
2023-01-31T04:10:07.731Z,0.39
2023-01-31T04:12:37.729Z,0.36
2023-01-31T04:15:05.978Z,0.28
2023-01-31T04:17:33.380Z,0.30
2023-01-31T04:20:00.464Z,0.40
2023-01-31T04:22:27.866Z,0.43
2023-01-31T04:24:54.575Z,0.33
2023-01-31T04:27:21.202Z,0.30
2023-01-31T04:29:47.806Z,0.30
2023-01-31T04:32:14.426Z,0.44
2023-01-31T04:34:41.050Z,0.48
2023-01-31T04:37:07.641Z,0.56
2023-01-31T04:39:34.249Z,0.56
2023-01-31T04:42:00.898Z,0.47
2023-01-31T04:44:27.496Z,0.38
2023-01-31T04:46:54.184Z,0.34
2023-01-31T04:49:21.142Z,0.19
2023-01-31T04:51:47.819Z,0.19
2023-01-31T04:54:14.705Z,0.18
2023-01-31T04:56:41.369Z,0.19
2023-01-31T04:59:08.806Z,0.19
2023-01-31T05:01:35.462Z,0.32
2023-01-31T05:04:02.040Z,0.35
2023-01-31T05:06:28.993Z,0.27
2023-01-31T05:08:55.615Z,0.33
2023-01-31T05:11:22.183Z,0.41
2023-01-31T05:13:48.836Z,0.24
2023-01-31T05:16:15.423Z,0.36
2023-01-31T05:18:42.038Z,0.39
2023-01-31T05:21:08.971Z,0.38
2023-01-31T05:23:36.228Z,0.44
2023-01-31T05:26:03.524Z,0.59
2023-01-31T05:28:30.192Z,0.48
2023-01-31T05:31:03.219Z,0.42
2023-01-31T05:33:32.601Z,0.43
2023-01-31T05:36:00.385Z,0.44
2023-01-31T05:38:27.425Z,0.61
2023-01-31T05:40:54.076Z,1.05
2023-01-31T05:43:20.669Z,1.43
2023-01-31T05:45:48.600Z,1.89
2023-01-31T05:48:15.395Z,2.05
2023-01-31T05:50:42.049Z,2.22
2023-01-31T05:53:09.392Z,2.37
2023-01-31T05:55:36.026Z,2.45
2023-01-31T05:58:02.635Z,2.52
2023-01-31T06:00:29.258Z,2.55
2023-01-31T06:03:00.028Z,2.61
2023-01-31T06:05:27.692Z,2.66
2023-01-31T06:07:54.362Z,2.71
2023-01-31T06:10:21.309Z,2.73
2023-01-31T06:12:48.245Z,2.78
2023-01-31T06:15:14.940Z,2.85
2023-01-31T06:17:41.545Z,2.84
2023-01-31T06:20:08.952Z,2.80
2023-01-31T06:22:35.532Z,2.93
2023-01-31T06:25:02.126Z,2.96
2023-01-31T06:27:33.042Z,2.95
2023-01-31T06:29:59.698Z,3.07
2023-01-31T06:32:26.227Z,3.10
2023-01-31T06:34:52.805Z,3.16
2023-01-31T06:37:19.405Z,3.22
2023-01-31T06:39:45.972Z,3.23
2023-01-31T06:42:12.588Z,3.27
2023-01-31T06:44:39.655Z,3.29
2023-01-31T06:47:06.255Z,3.36
2023-01-31T06:49:32.816Z,3.37
2023-01-31T06:51:59.461Z,3.43
2023-01-31T06:54:26.070Z,3.45
2023-01-31T06:56:52.701Z,3.50
2023-01-31T06:59:19.295Z,3.55
2023-01-31T07:01:45.934Z,3.31
2023-01-31T07:04:12.591Z,2.61
2023-01-31T07:06:39.216Z,2.14
2023-01-31T07:09:05.943Z,2.03
2023-01-31T07:11:32.628Z,1.84
2023-01-31T07:13:59.313Z,1.76
2023-01-31T07:16:26.165Z,1.56
2023-01-31T07:18:56.463Z,1.56
2023-01-31T07:21:24.257Z,1.63
2023-01-31T07:23:51.069Z,1.63
2023-01-31T07:26:18.015Z,1.67
2023-01-31T07:28:44.688Z,1.75
2023-01-31T07:31:13.404Z,1.66
2023-01-31T07:33:40.493Z,1.74
2023-01-31T07:36:08.621Z,1.73
2023-01-31T07:38:35.622Z,1.88
2023-01-31T07:41:04.405Z,2.05
2023-01-31T07:43:32.478Z,1.88
2023-01-31T07:45:59.325Z,2.09
2023-01-31T07:48:26.208Z,2.09
2023-01-31T07:50:57.950Z,2.24
2023-01-31T07:53:24.597Z,2.24
2023-01-31T07:55:51.210Z,2.28
2023-01-31T07:58:17.816Z,2.31
2023-01-31T08:01:02.852Z,2.52
2023-01-31T08:03:34.356Z,2.72
2023-01-31T08:06:03.165Z,2.67
2023-01-31T08:08:29.881Z,2.81
2023-01-31T08:10:56.561Z,2.97
2023-01-31T08:13:23.475Z,3.08
2023-01-31T08:15:52.235Z,3.24
2023-01-31T08:18:19.372Z,3.27
2023-01-31T08:20:46.133Z,3.30
2023-01-31T08:23:12.741Z,3.48
2023-01-31T08:25:39.360Z,3.67
2023-01-31T08:28:05.963Z,3.88
2023-01-31T08:30:32.862Z,4.03
2023-01-31T08:33:00.125Z,4.16
2023-01-31T08:35:27.999Z,4.45
2023-01-31T08:38:03.729Z,4.70
2023-01-31T08:40:37.118Z,4.82
2023-01-31T08:43:03.707Z,4.86
2023-01-31T08:45:31.411Z,4.69
2023-01-31T08:48:00.116Z,4.79
2023-01-31T08:50:30.153Z,4.71
2023-01-31T08:52:58.843Z,4.88
2023-01-31T08:55:26.671Z,4.83
2023-01-31T08:57:59.669Z,4.85
2023-01-31T09:00:26.990Z,4.77
2023-01-31T09:02:56.637Z,4.68
2023-01-31T09:05:24.352Z,4.73
2023-01-31T09:07:51.173Z,4.70
2023-01-31T09:10:18.733Z,4.74
2023-01-31T09:12:45.402Z,4.59
2023-01-31T09:15:12.462Z,4.67
2023-01-31T09:17:40.505Z,4.62
2023-01-31T09:20:10.123Z,4.66
2023-01-31T09:22:38.291Z,4.69
2023-01-31T09:25:05.553Z,4.75
2023-01-31T09:27:32.246Z,4.85
2023-01-31T09:29:58.897Z,5.19
2023-01-31T09:32:25.525Z,5.42
2023-01-31T09:34:52.177Z,5.66
2023-01-31T09:37:18.786Z,5.79
2023-01-31T09:39:45.383Z,6.06
2023-01-31T09:42:27.065Z,6.22
2023-01-31T09:45:15.959Z,6.76
2023-01-31T09:47:52.548Z,7.11
2023-01-31T09:50:37.443Z,7.87
2023-01-31T09:53:04.119Z,8.32
2023-01-31T09:55:58.821Z,7.28
2023-01-31T09:58:43.661Z,6.40
2023-01-31T10:01:29.753Z,6.93
2023-01-31T10:04:14.879Z,8.02
2023-01-31T10:07:01.002Z,9.61
2023-01-31T10:09:36.021Z,10.10
2023-01-31T10:12:14.316Z,10.53
2023-01-31T10:14:50.475Z,11.52
2023-01-31T10:17:26.001Z,11.95
2023-01-31T10:19:57.973Z,11.95
2023-01-31T10:22:39.900Z,10.45
2023-01-31T10:25:16.502Z,10.02
2023-01-31T10:27:49.260Z,8.83
2023-01-31T10:30:24.978Z,8.02
2023-01-31T10:32:59.131Z,7.86
2023-01-31T10:35:42.616Z,7.38
2023-01-31T10:38:23.443Z,6.85
2023-01-31T10:40:57.823Z,6.46
2023-01-31T10:43:49.929Z,6.29
2023-01-31T10:46:16.699Z,6.90
2023-01-31T10:48:47.423Z,7.21
2023-01-31T10:51:33.549Z,7.25
2023-01-31T10:54:30.393Z,8.78
2023-01-31T10:56:58.038Z,9.47
2023-01-31T10:59:41.517Z,9.63
2023-01-31T11:02:20.701Z,11.16
2023-01-31T11:04:49.184Z,11.57
2023-01-31T11:07:15.826Z,10.68
2023-01-31T11:09:54.258Z,9.09
2023-01-31T11:12:22.521Z,10.09
2023-01-31T11:15:07.066Z,10.59
2023-01-31T11:17:37.219Z,9.63
2023-01-31T11:20:06.674Z,8.97
2023-01-31T11:22:37.676Z,8.22
2023-01-31T11:25:05.329Z,7.75
2023-01-31T11:27:38.343Z,7.36
2023-01-31T11:30:07.129Z,7.23
2023-01-31T11:32:37.112Z,7.06
2023-01-31T11:35:15.631Z,7.10
2023-01-31T11:38:11.051Z,7.09
2023-01-31T11:40:40.450Z,6.73
2023-01-31T11:43:21.927Z,6.47
2023-01-31T11:46:00.479Z,6.45
2023-01-31T11:48:36.636Z,6.42
2023-01-31T11:51:03.468Z,6.05
2023-01-31T11:53:32.626Z,6.09
2023-01-31T11:56:13.164Z,6.00
2023-01-31T11:58:41.674Z,5.88
2023-01-31T12:01:21.970Z,5.88
2023-01-31T12:04:03.659Z,5.95
2023-01-31T12:06:36.346Z,5.91
2023-01-31T12:09:21.568Z,5.88
2023-01-31T12:11:52.659Z,5.76
2023-01-31T12:14:19.756Z,5.81
2023-01-31T12:16:48.512Z,5.98
2023-01-31T12:19:15.207Z,6.07
2023-01-31T12:22:04.032Z,6.10
2023-01-31T12:24:50.313Z,5.96
2023-01-31T12:27:22.782Z,6.21
2023-01-31T12:30:04.868Z,6.63
2023-01-31T12:32:50.142Z,6.50
2023-01-31T12:35:41.869Z,6.45
2023-01-31T12:38:24.223Z,6.26
2023-01-31T12:41:18.228Z,6.40
2023-01-31T12:43:59.701Z,6.61
2023-01-31T12:46:35.110Z,7.08
2023-01-31T12:49:16.762Z,8.38
2023-01-31T12:52:02.252Z,10.55
2023-01-31T12:54:45.283Z,10.20
2023-01-31T12:57:33.909Z,9.11
2023-01-31T13:00:18.530Z,9.50
2023-01-31T13:03:18.892Z,8.87
2023-01-31T13:06:16.223Z,8.00
2023-01-31T13:09:18.036Z,7.60
2023-01-31T13:11:52.888Z,9.73
2023-01-31T13:14:27.086Z,11.67
2023-01-31T13:17:00.118Z,12.02
2023-01-31T13:19:34.205Z,10.90
2023-01-31T13:22:05.730Z,9.65
2023-01-31T13:24:41.334Z,10.57
2023-01-31T13:27:23.295Z,11.84
2023-01-31T13:29:59.238Z,11.03
2023-01-31T13:32:38.963Z,9.69
2023-01-31T13:35:22.016Z,9.24
2023-01-31T13:37:54.274Z,10.05
2023-01-31T13:40:25.139Z,9.33
2023-01-31T13:42:53.821Z,8.18
2023-01-31T13:45:31.857Z,7.38
2023-01-31T13:48:10.385Z,6.85
2023-01-31T13:51:11.565Z,7.10
2023-01-31T13:53:48.214Z,7.07
2023-01-31T13:56:22.651Z,7.35
2023-01-31T13:58:52.113Z,6.86
2023-01-31T14:01:32.494Z,6.35
2023-01-31T14:04:11.144Z,6.03
2023-01-31T14:06:53.379Z,5.96
2023-01-31T14:09:32.732Z,5.88
2023-01-31T14:12:09.504Z,5.86
2023-01-31T14:14:42.000Z,6.02
2023-01-31T14:17:13.412Z,6.09
2023-01-31T14:19:42.738Z,5.84
2023-01-31T14:22:18.339Z,5.84
2023-01-31T14:24:49.468Z,5.66
2023-01-31T14:27:25.011Z,5.80
2023-01-31T14:29:56.948Z,5.94
2023-01-31T14:32:49.971Z,5.91
2023-01-31T14:35:16.549Z,5.65
2023-01-31T14:38:01.251Z,5.58
2023-01-31T14:41:15.873Z,5.62
2023-01-31T14:43:54.666Z,5.62
2023-01-31T14:46:27.285Z,5.38
2023-01-31T14:49:44.643Z,5.20
2023-01-31T14:52:11.175Z,5.07
2023-01-31T14:54:56.810Z,4.81
2023-01-31T14:57:29.532Z,4.51
2023-01-31T15:00:27.660Z,4.45
2023-01-31T15:03:18.185Z,4.30
2023-01-31T15:05:48.428Z,4.23
2023-01-31T15:08:14.965Z,4.15
2023-01-31T15:11:12.866Z,3.98
2023-01-31T15:13:55.108Z,3.76
2023-01-31T15:16:30.792Z,3.60
2023-01-31T15:19:53.811Z,3.60
2023-01-31T15:22:22.246Z,3.64
2023-01-31T15:24:57.105Z,3.61
2023-01-31T15:27:28.676Z,3.59
2023-01-31T15:30:29.887Z,3.57
2023-01-31T15:33:12.918Z,3.26
2023-01-31T15:35:53.192Z,3.08
2023-01-31T15:38:27.007Z,2.93
2023-01-31T15:41:16.566Z,2.89
2023-01-31T15:43:43.459Z,2.75
2023-01-31T15:46:31.345Z,2.71
2023-01-31T15:48:58.878Z,2.70
2023-01-31T15:51:26.635Z,2.72
2023-01-31T15:54:07.053Z,2.62
2023-01-31T15:56:40.515Z,2.64
2023-01-31T15:59:18.417Z,2.73
2023-01-31T16:01:51.326Z,2.76
2023-01-31T16:04:18.117Z,2.78
2023-01-31T16:06:46.608Z,2.80
2023-01-31T16:09:25.412Z,2.75
2023-01-31T16:11:53.252Z,2.64
2023-01-31T16:14:23.013Z,2.67
2023-01-31T16:16:52.231Z,2.66
2023-01-31T16:19:36.027Z,2.51
2023-01-31T16:22:02.812Z,2.45
2023-01-31T16:24:29.607Z,2.39
2023-01-31T16:26:59.156Z,2.34
2023-01-31T16:29:42.512Z,2.26
2023-01-31T16:32:26.219Z,2.21
2023-01-31T16:34:54.461Z,2.19
2023-01-31T16:37:29.777Z,2.14
2023-01-31T16:40:03.119Z,2.07
2023-01-31T16:42:32.030Z,1.91
2023-01-31T16:44:58.682Z,1.95
2023-01-31T16:47:48.237Z,1.93
2023-01-31T16:50:17.908Z,1.96
2023-01-31T16:52:46.188Z,1.99
2023-01-31T16:55:15.778Z,1.97
2023-01-31T16:57:42.444Z,1.86
2023-01-31T17:00:23.998Z,1.98
2023-01-31T17:02:53.121Z,2.00
2023-01-31T17:05:24.948Z,1.98
2023-01-31T17:07:53.709Z,1.89
2023-01-31T17:10:29.194Z,1.96
2023-01-31T17:13:03.601Z,2.00
2023-01-31T17:15:30.204Z,2.02
2023-01-31T17:17:57.084Z,2.06
2023-01-31T17:20:24.455Z,2.12
2023-01-31T17:23:00.769Z,2.14
2023-01-31T17:25:33.357Z,2.25
2023-01-31T17:28:00.138Z,2.26
2023-01-31T17:30:31.398Z,2.30
2023-01-31T17:32:59.532Z,2.32
2023-01-31T17:35:26.023Z,2.31
2023-01-31T17:37:52.785Z,2.30
2023-01-31T17:40:19.558Z,2.22
2023-01-31T17:42:46.304Z,2.17
2023-01-31T17:45:17.613Z,2.22
2023-01-31T17:47:45.412Z,2.25
2023-01-31T17:50:18.056Z,2.20
2023-01-31T17:52:45.219Z,2.22
2023-01-31T17:55:13.044Z,2.08
2023-01-31T17:57:39.798Z,2.28
2023-01-31T18:00:10.919Z,2.32
2023-01-31T18:02:38.608Z,2.28
2023-01-31T18:05:05.784Z,2.28
2023-01-31T18:07:32.452Z,2.13
2023-01-31T18:09:59.050Z,2.21
2023-01-31T18:12:25.793Z,2.23
2023-01-31T18:14:52.486Z,2.23
2023-01-31T18:17:19.973Z,2.23
2023-01-31T18:19:46.622Z,2.20
2023-01-31T18:22:14.173Z,2.21
2023-01-31T18:24:40.972Z,2.21
2023-01-31T18:27:07.646Z,2.25
2023-01-31T18:29:34.614Z,2.23
2023-01-31T18:32:03.316Z,2.20
2023-01-31T18:34:31.034Z,2.33
2023-01-31T18:36:57.703Z,2.36
2023-01-31T18:39:24.895Z,2.28
2023-01-31T18:41:51.752Z,2.33
2023-01-31T18:44:18.424Z,2.33
2023-01-31T18:46:45.082Z,2.37
2023-01-31T18:49:11.705Z,2.45
2023-01-31T18:51:39.244Z,2.40
2023-01-31T18:54:07.681Z,2.47
2023-01-31T18:56:34.461Z,2.49
2023-01-31T18:59:01.246Z,2.47
2023-01-31T19:01:31.018Z,2.53
2023-01-31T19:03:58.474Z,2.47
2023-01-31T19:06:28.201Z,2.44
2023-01-31T19:08:57.374Z,2.38
2023-01-31T19:11:26.797Z,2.39
2023-01-31T19:13:54.058Z,2.41
2023-01-31T19:16:23.849Z,2.38
2023-01-31T19:18:51.179Z,2.34
2023-01-31T19:21:23.433Z,2.19
2023-01-31T19:23:53.655Z,2.13
2023-01-31T19:26:20.279Z,2.10
2023-01-31T19:28:47.954Z,2.05
2023-01-31T19:31:17.473Z,2.03
2023-01-31T19:33:49.568Z,2.02
2023-01-31T19:36:19.191Z,2.00
2023-01-31T19:38:45.998Z,2.07
2023-01-31T19:41:17.015Z,2.11
2023-01-31T19:43:44.423Z,2.09
2023-01-31T19:46:11.481Z,2.09
2023-01-31T19:48:38.161Z,2.07
2023-01-31T19:51:19.146Z,2.09
2023-01-31T19:53:46.970Z,2.09
2023-01-31T19:56:14.329Z,2.20
2023-01-31T19:58:41.840Z,2.22
2023-01-31T20:01:11.979Z,2.29
2023-01-31T20:03:39.593Z,2.37
2023-01-31T20:06:08.651Z,2.34
2023-01-31T20:08:36.244Z,2.41
2023-01-31T20:11:04.748Z,2.49
2023-01-31T20:13:31.377Z,2.48
2023-01-31T20:16:01.771Z,2.54
2023-01-31T20:18:28.753Z,2.58
2023-01-31T20:20:55.378Z,2.58
2023-01-31T20:23:22.012Z,2.61
2023-01-31T20:25:50.380Z,2.66
2023-01-31T20:28:18.070Z,2.64
2023-01-31T20:30:45.715Z,2.70
2023-01-31T20:33:13.455Z,2.71
2023-01-31T20:35:41.087Z,2.77
2023-01-31T20:38:08.758Z,2.79
2023-01-31T20:40:35.467Z,2.82
2023-01-31T20:43:02.247Z,2.73
2023-01-31T20:45:29.241Z,2.80
2023-01-31T20:47:56.989Z,2.82
2023-01-31T20:50:24.771Z,2.83
2023-01-31T20:52:53.743Z,2.75
2023-01-31T20:55:20.618Z,2.70
2023-01-31T20:57:50.190Z,2.70
2023-01-31T21:00:21.463Z,2.75
2023-01-31T21:02:49.508Z,2.71
2023-01-31T21:05:17.969Z,2.70
2023-01-31T21:07:44.835Z,2.68
2023-01-31T21:10:12.792Z,2.54
2023-01-31T21:12:39.434Z,2.58
2023-01-31T21:15:06.675Z,2.62
2023-01-31T21:17:39.993Z,2.58
2023-01-31T21:20:08.558Z,2.57
2023-01-31T21:22:35.234Z,2.52
2023-01-31T21:25:02.243Z,2.37
2023-01-31T21:27:29.314Z,2.32
2023-01-31T21:29:55.979Z,2.28
2023-01-31T21:32:22.775Z,2.29
2023-01-31T21:34:49.464Z,2.24
2023-01-31T21:37:16.023Z,2.09
2023-01-31T21:39:42.618Z,2.08
2023-01-31T21:42:16.571Z,2.06
2023-01-31T21:44:44.253Z,2.06
2023-01-31T21:47:11.758Z,1.94
2023-01-31T21:49:38.411Z,1.79
2023-01-31T21:52:05.762Z,1.72
2023-01-31T21:54:33.422Z,1.69
2023-01-31T21:57:00.288Z,1.65
2023-01-31T21:59:26.919Z,1.64
2023-01-31T22:01:53.665Z,1.58
2023-01-31T22:04:21.058Z,1.43
2023-01-31T22:06:50.481Z,1.39
2023-01-31T22:09:17.823Z,1.31
2023-01-31T22:11:46.821Z,1.38
2023-01-31T22:14:15.662Z,1.50
2023-01-31T22:16:42.694Z,1.52
2023-01-31T22:19:11.688Z,1.52
2023-01-31T22:21:38.684Z,1.55
2023-01-31T22:24:07.570Z,1.45
2023-01-31T22:26:36.532Z,1.46
2023-01-31T22:29:05.782Z,1.36
2023-01-31T22:31:32.648Z,1.33
2023-01-31T22:34:03.640Z,1.25
2023-01-31T22:36:30.420Z,1.27
2023-01-31T22:38:57.080Z,1.28
2023-01-31T22:41:23.724Z,1.31
2023-01-31T22:43:51.908Z,1.26
2023-01-31T22:46:21.619Z,1.24
2023-01-31T22:48:51.042Z,1.27
2023-01-31T22:51:23.761Z,1.31
2023-01-31T22:53:50.723Z,1.31
2023-01-31T22:56:20.351Z,1.33
2023-01-31T22:58:47.971Z,1.30
2023-01-31T23:01:18.235Z,1.22
2023-01-31T23:03:45.996Z,1.24
2023-01-31T23:06:14.205Z,1.24
2023-01-31T23:08:41.090Z,1.24
2023-01-31T23:11:10.347Z,1.23
2023-01-31T23:13:38.098Z,1.31
2023-01-31T23:16:06.427Z,1.30
2023-01-31T23:18:33.498Z,1.27
2023-01-31T23:21:14.983Z,1.26
2023-01-31T23:23:42.851Z,1.22
2023-01-31T23:26:10.389Z,1.26
2023-01-31T23:28:37.174Z,1.27
2023-01-31T23:31:04.070Z,1.21
2023-01-31T23:33:30.719Z,1.26
2023-01-31T23:35:57.358Z,1.28
2023-01-31T23:38:24.400Z,1.32
2023-01-31T23:40:52.974Z,1.36
2023-01-31T23:43:20.279Z,1.34
2023-01-31T23:45:47.303Z,1.39
2023-01-31T23:48:14.159Z,1.41
2023-01-31T23:50:41.017Z,1.43
2023-01-31T23:53:07.877Z,1.38
2023-01-31T23:55:34.456Z,1.48
2023-01-31T23:58:01.065Z,1.42
